| time (UTC) | temp C | wind direction | speed KPH | gust KPH | rain 1hr cm | rain 24hr cm | rain mn cm | humidity % | barometer mb |
| 20260504000049 | 21 | 161 | 3.2 | 12.9 | 0.00 | 0.00 | 0.00 | 64 | 1017.6 |
| 20260503234553 | 21 | 138 | 1.6 | 14.5 | 0.00 | 0.00 | 0.00 | 61 | 1017.6 |
| 20260503233045 | 21 | 163 | 3.2 | 12.9 | 0.00 | 0.00 | 0.00 | 60 | 1017.6 |
| 20260503231554 | 22 | 194 | 3.2 | 12.9 | 0.00 | 0.00 | 0.00 | 58 | 1017.7 |
| 20260503230048 | 22 | 126 | 3.2 | 14.5 | 0.00 | 0.00 | 0.00 | 56 | 1017.7 |
| 20260503224545 | 22 | 119 | 3.2 | 14.5 | 0.00 | 0.00 | 0.00 | 54 | 1017.6 |
| 20260503223046 | 22 | 149 | 3.2 | 11.3 | 0.00 | 0.00 | 0.00 | 53 | 1017.7 |
| 20260503221551 | 22 | 221 | 1.6 | 14.5 | 0.00 | 0.00 | 0.00 | 52 | 1017.7 |
| 20260503220108 | 22 | 181 | 3.2 | 14.5 | 0.00 | 0.00 | 0.00 | 46 | 1017.7 |
| 20260503214547 | 22 | 0 | 4.8 | 17.7 | 0.00 | 0.00 | 0.00 | 47 | 1017.9 |
| 20260503213053 | 22 | 184 | 4.8 | 12.9 | 0.00 | 0.00 | 0.00 | 45 | 1018.1 |
| 20260503211601 | 22 | 197 | 3.2 | 11.3 | 0.00 | 0.00 | 0.00 | 47 | 1018.2 |
| 20260503210049 | 22 | 157 | 4.8 | 16.1 | 0.00 | 0.00 | 0.00 | 42 | 1018.4 |
| 20260503204555 | 22 | 246 | 3.2 | 14.5 | 0.00 | 0.00 | 0.00 | 45 | 1018.4 |
| 20260503203047 | 22 | 113 | 3.2 | 9.7 | 0.00 | 0.00 | 0.00 | 48 | 1018.7 |
| 20260503201551 | 22 | 0 | 0.0 | 0.0 | 0.00 | 0.00 | 0.00 | 43 | 1018.8 |
| 20260503200049 | 22 | 0 | 0.0 | 3.2 | 0.00 | 0.00 | 0.00 | 35 | 1018.9 |
| 20260503194555 | 22 | 0 | 0.0 | 6.4 | 0.00 | 0.00 | 0.00 | 36 | 1019.2 |
| 20260503193057 | 22 | 195 | 0.0 | 6.4 | 0.00 | 0.00 | 0.00 | 35 | 1019.6 |
| 20260503191547 | 22 | 86 | 0.0 | 3.2 | 0.00 | 0.00 | 0.00 | 36 | 1019.6 |
| 20260503190053 | 22 | 304 | 0.0 | 6.4 | 0.00 | 0.00 | 0.00 | 39 | 1019.9 |
| 20260503184548 | 21 | 333 | 1.6 | 6.4 | 0.00 | 0.00 | 0.00 | 41 | 1020.1 |
| 20260503183045 | 21 | 31 | 0.0 | 8.0 | 0.00 | 0.00 | 0.00 | 39 | 1020.4 |
| 20260503181618 | 21 | 61 | 6.4 | 12.9 | 0.00 | 0.00 | 0.00 | 42 | 1020.6 |
| 20260503180054 | 21 | 24 | 4.8 | 14.5 | 0.00 | 0.00 | 0.00 | 47 | 1020.7 |
| 20260503174554 | 21 | 29 | 8.0 | 20.9 | 0.00 | 0.00 | 0.00 | 41 | 1020.6 |
| 20260503173055 | 21 | 11 | 12.9 | 19.3 | 0.00 | 0.00 | 0.00 | 42 | 1020.8 |
| 20260503171545 | 21 | 15 | 14.5 | 19.3 | 0.00 | 0.00 | 0.00 | 44 | 1021.1 |
| 20260503120107 | 15 | 5 | 9.7 | 14.5 | 0.00 | 0.00 | 0.00 | 72 | 1020.8 |
| 20260503081554 | 16 | 31 | 9.7 | 16.1 | 0.00 | 1.55 | 0.00 | 68 | 1019.3 |
| 20260503071557 | 16 | 5 | 11.3 | 16.1 | 0.00 | 2.01 | 0.00 | 67 | 1018.9 |
| 20260503060111 | 17 | 324 | 14.5 | 22.5 | 0.00 | 2.57 | 0.00 | 65 | 1018.9 |
| 20260503054546 | 17 | 342 | 12.9 | 20.9 | 0.00 | 2.87 | 0.00 | 65 | 1018.8 |
| 20260503053048 | 17 | 360 | 12.9 | 19.3 | 0.00 | 2.87 | 0.00 | 63 | 1018.8 |
| 20260503051550 | 17 | 339 | 8.0 | 16.1 | 0.00 | 2.87 | 0.00 | 63 | 1018.8 |
| 20260503050050 | 17 | 342 | 9.7 | 19.3 | 0.00 | 2.87 | 0.00 | 64 | 1018.7 |
| 20260503044618 | 17 | 311 | 14.5 | 20.9 | 0.00 | 2.87 | 2.87 | 64 | 1018.4 |
| 20260503043045 | 17 | 304 | 14.5 | 19.3 | 0.00 | 2.87 | 2.87 | 63 | 1018.5 |
| 20260503041550 | 17 | 306 | 16.1 | 19.3 | 0.00 | 2.87 | 2.87 | 61 | 1018.3 |
| 20260503040048 | 17 | 311 | 14.5 | 19.3 | 0.00 | 2.87 | 2.87 | 64 | 1018.2 |
| 20260503034548 | 18 | 308 | 16.1 | 20.9 | 0.00 | 3.15 | 2.87 | 63 | 1018.2 |
| 20260503033051 | 18 | 312 | 12.9 | 17.7 | 0.00 | 3.15 | 2.87 | 63 | 1018.1 |
| 20260503031545 | 18 | 335 | 16.1 | 22.5 | 0.00 | 3.15 | 2.87 | 60 | 1017.9 |
| 20260503030057 | 18 | 317 | 16.1 | 19.3 | 0.00 | 3.15 | 2.87 | 60 | 1017.8 |
| 20260503024556 | 18 | 342 | 14.5 | 20.9 | 0.00 | 3.71 | 2.87 | 60 | 1017.7 |
| 20260503023049 | 18 | 341 | 16.1 | 22.5 | 0.00 | 3.71 | 2.87 | 57 | 1017.5 |
| 20260503021547 | 18 | 341 | 16.1 | 24.1 | 0.00 | 3.71 | 2.87 | 59 | 1017.4 |
| 20260503020046 | 18 | 327 | 14.5 | 22.5 | 0.00 | 3.71 | 2.87 | 58 | 1017.3 |
| 20260503014554 | 19 | 327 | 17.7 | 24.1 | 0.00 | 4.67 | 2.87 | 55 | 1017.0 |
| 20260503013052 | 19 | 317 | 17.7 | 24.1 | 0.00 | 4.67 | 2.87 | 56 | 1016.7 |
| 20260503011549 | 20 | 321 | 17.7 | 24.1 | 0.00 | 4.67 | 2.87 | 55 | 1016.5 |
| 20260503010051 | 20 | 338 | 19.3 | 24.1 | 0.00 | 4.67 | 2.87 | 53 | 1016.2 |
| 20260503004610 | 20 | 334 | 17.7 | 24.1 | 0.00 | 4.75 | 2.87 | 53 | 1015.8 |
| 20260503003050 | 20 | 317 | 20.9 | 27.4 | 0.00 | 4.75 | 2.87 | 50 | 1015.6 |
| 20260503001551 | 20 | 313 | 22.5 | 29.0 | 0.00 | 4.75 | 2.87 | 50 | 1015.3 |